sensor_id;sensor_type;location;lat;lon;timestamp;P1;durP1;ratioP1;P2;durP2;ratioP2
10661;SDS011;5379;51.034;7.006;2023-05-14T04:33:09;1.80;;;1.70;;
10661;SDS011;5379;51.034;7.006;2023-05-14T04:35:36;1.80;;;1.70;;
10661;SDS011;5379;51.034;7.006;2023-05-14T04:38:03;1.97;;;1.87;;
10661;SDS011;5379;51.034;7.006;2023-05-14T04:40:31;1.97;;;1.87;;
10661;SDS011;5379;51.034;7.006;2023-05-14T04:42:58;2.17;;;2.07;;
10661;SDS011;5379;51.034;7.006;2023-05-14T04:45:25;2.47;;;2.20;;
10661;SDS011;5379;51.034;7.006;2023-05-14T04:47:53;1.83;;;1.73;;
10661;SDS011;5379;51.034;7.006;2023-05-14T04:50:20;1.87;;;1.87;;
10661;SDS011;5379;51.034;7.006;2023-05-14T04:52:47;1.83;;;1.73;;
10661;SDS011;5379;51.034;7.006;2023-05-14T04:55:14;2.13;;;2.03;;
10661;SDS011;5379;51.034;7.006;2023-05-14T04:57:41;2.27;;;2.17;;
10661;SDS011;5379;51.034;7.006;2023-05-14T05:00:09;1.90;;;1.90;;
10661;SDS011;5379;51.034;7.006;2023-05-14T05:02:37;2.03;;;1.97;;
10661;SDS011;5379;51.034;7.006;2023-05-14T05:05:06;2.83;;;2.50;;
10661;SDS011;5379;51.034;7.006;2023-05-14T05:07:33;1.93;;;1.87;;
10661;SDS011;5379;51.034;7.006;2023-05-14T05:10:00;1.67;;;1.67;;
10661;SDS011;5379;51.034;7.006;2023-05-14T05:12:27;2.50;;;2.40;;
10661;SDS011;5379;51.034;7.006;2023-05-14T05:14:55;2.20;;;1.90;;
10661;SDS011;5379;51.034;7.006;2023-05-14T05:17:22;2.13;;;2.03;;
10661;SDS011;5379;51.034;7.006;2023-05-14T05:19:49;2.30;;;2.10;;
10661;SDS011;5379;51.034;7.006;2023-05-14T05:22:18;2.33;;;2.23;;
10661;SDS011;5379;51.034;7.006;2023-05-14T05:24:45;2.33;;;2.23;;
10661;SDS011;5379;51.034;7.006;2023-05-14T05:27:12;2.20;;;2.10;;
10661;SDS011;5379;51.034;7.006;2023-05-14T05:29:39;5.63;;;2.30;;
10661;SDS011;5379;51.034;7.006;2023-05-14T05:32:06;2.57;;;2.47;;
10661;SDS011;5379;51.034;7.006;2023-05-14T05:34:34;2.30;;;2.20;;
10661;SDS011;5379;51.034;7.006;2023-05-14T05:37:01;3.83;;;2.47;;
10661;SDS011;5379;51.034;7.006;2023-05-14T05:39:31;2.20;;;2.10;;
10661;SDS011;5379;51.034;7.006;2023-05-14T05:41:59;2.50;;;2.40;;
10661;SDS011;5379;51.034;7.006;2023-05-14T05:44:26;2.60;;;2.33;;
10661;SDS011;5379;51.034;7.006;2023-05-14T05:46:53;2.93;;;2.73;;
10661;SDS011;5379;51.034;7.006;2023-05-14T05:49:21;2.20;;;2.10;;
10661;SDS011;5379;51.034;7.006;2023-05-14T05:51:48;2.33;;;2.23;;
10661;SDS011;5379;51.034;7.006;2023-05-14T05:54:15;2.20;;;2.10;;
10661;SDS011;5379;51.034;7.006;2023-05-14T05:56:44;3.30;;;3.10;;
10661;SDS011;5379;51.034;7.006;2023-05-14T05:59:10;7.00;;;3.13;;
10661;SDS011;5379;51.034;7.006;2023-05-14T06:01:37;2.63;;;2.53;;
10661;SDS011;5379;51.034;7.006;2023-05-14T06:04:07;2.80;;;2.70;;
10661;SDS011;5379;51.034;7.006;2023-05-14T06:06:34;4.53;;;2.87;;
10661;SDS011;5379;51.034;7.006;2023-05-14T06:09:01;2.40;;;2.30;;
10661;SDS011;5379;51.034;7.006;2023-05-14T06:11:28;2.67;;;2.57;;
10661;SDS011;5379;51.034;7.006;2023-05-14T06:13:57;3.80;;;2.57;;
10661;SDS011;5379;51.034;7.006;2023-05-14T06:16:24;2.70;;;2.60;;
10661;SDS011;5379;51.034;7.006;2023-05-14T06:18:51;3.17;;;2.97;;
10661;SDS011;5379;51.034;7.006;2023-05-14T06:21:18;2.73;;;2.63;;
10661;SDS011;5379;51.034;7.006;2023-05-14T06:23:45;2.67;;;2.57;;
10661;SDS011;5379;51.034;7.006;2023-05-14T06:26:12;2.50;;;2.40;;
10661;SDS011;5379;51.034;7.006;2023-05-14T06:28:39;6.27;;;2.77;;
10661;SDS011;5379;51.034;7.006;2023-05-14T06:31:08;2.63;;;2.40;;
10661;SDS011;5379;51.034;7.006;2023-05-14T06:33:35;3.20;;;3.00;;
10661;SDS011;5379;51.034;7.006;2023-05-14T06:36:03;2.50;;;2.40;;
10661;SDS011;5379;51.034;7.006;2023-05-14T06:38:31;2.87;;;2.60;;
10661;SDS011;5379;51.034;7.006;2023-05-14T06:40:58;2.57;;;2.47;;
10661;SDS011;5379;51.034;7.006;2023-05-14T06:43:25;2.57;;;2.47;;
10661;SDS011;5379;51.034;7.006;2023-05-14T06:45:52;3.77;;;3.47;;
10661;SDS011;5379;51.034;7.006;2023-05-14T06:48:20;3.63;;;3.33;;
10661;SDS011;5379;51.034;7.006;2023-05-14T06:50:48;3.03;;;2.83;;
10661;SDS011;5379;51.034;7.006;2023-05-14T06:53:16;2.90;;;2.73;;
10661;SDS011;5379;51.034;7.006;2023-05-14T06:55:43;3.53;;;3.33;;
10661;SDS011;5379;51.034;7.006;2023-05-14T06:58:13;2.73;;;2.63;;
10661;SDS011;5379;51.034;7.006;2023-05-14T07:00:40;3.30;;;3.10;;
10661;SDS011;5379;51.034;7.006;2023-05-14T07:03:07;3.10;;;2.77;;
10661;SDS011;5379;51.034;7.006;2023-05-14T07:05:36;3.07;;;2.57;;
10661;SDS011;5379;51.034;7.006;2023-05-14T07:08:04;2.70;;;2.60;;
10661;SDS011;5379;51.034;7.006;2023-05-14T07:10:31;2.70;;;2.60;;
10661;SDS011;5379;51.034;7.006;2023-05-14T07:12:59;2.60;;;2.50;;
10661;SDS011;5379;51.034;7.006;2023-05-14T07:15:27;3.87;;;3.27;;
10661;SDS011;5379;51.034;7.006;2023-05-14T07:17:54;2.60;;;2.50;;
10661;SDS011;5379;51.034;7.006;2023-05-14T07:20:21;2.50;;;2.40;;
10661;SDS011;5379;51.034;7.006;2023-05-14T07:22:51;5.97;;;2.50;;
10661;SDS011;5379;51.034;7.006;2023-05-14T07:25:18;2.63;;;2.53;;
10661;SDS011;5379;51.034;7.006;2023-05-14T07:27:45;2.30;;;2.20;;
10661;SDS011;5379;51.034;7.006;2023-05-14T07:30:12;2.90;;;2.80;;
10661;SDS011;5379;51.034;7.006;2023-05-14T07:32:42;2.90;;;2.70;;
10661;SDS011;5379;51.034;7.006;2023-05-14T07:35:12;2.23;;;2.13;;
10661;SDS011;5379;51.034;7.006;2023-05-14T07:37:44;2.53;;;2.43;;
10661;SDS011;5379;51.034;7.006;2023-05-14T07:40:14;2.73;;;2.63;;
10661;SDS011;5379;51.034;7.006;2023-05-14T07:42:52;1.77;;;1.67;;
10661;SDS011;5379;51.034;7.006;2023-05-14T07:48:48;2.37;;;1.90;;
10661;SDS011;5379;51.034;7.006;2023-05-14T07:54:05;2.53;;;2.43;;
10661;SDS011;5379;51.034;7.006;2023-05-14T07:56:34;2.73;;;2.53;;
10661;SDS011;5379;51.034;7.006;2023-05-14T07:59:01;3.00;;;2.80;;
10661;SDS011;5379;51.034;7.006;2023-05-14T08:01:28;2.87;;;2.67;;
10661;SDS011;5379;51.034;7.006;2023-05-14T08:03:55;2.27;;;2.17;;
10661;SDS011;5379;51.034;7.006;2023-05-14T08:06:23;2.83;;;2.27;;
10661;SDS011;5379;51.034;7.006;2023-05-14T08:08:51;2.57;;;2.23;;
10661;SDS011;5379;51.034;7.006;2023-05-14T08:11:18;2.30;;;2.10;;
10661;SDS011;5379;51.034;7.006;2023-05-14T08:13:47;3.57;;;3.30;;
10661;SDS011;5379;51.034;7.006;2023-05-14T08:16:14;2.27;;;2.17;;
10661;SDS011;5379;51.034;7.006;2023-05-14T08:18:41;2.43;;;2.33;;
10661;SDS011;5379;51.034;7.006;2023-05-14T08:21:08;2.23;;;2.13;;
10661;SDS011;5379;51.034;7.006;2023-05-14T08:23:35;2.17;;;2.07;;
10661;SDS011;5379;51.034;7.006;2023-05-14T08:26:02;3.47;;;2.73;;
10661;SDS011;5379;51.034;7.006;2023-05-14T08:28:29;2.30;;;2.20;;
10661;SDS011;5379;51.034;7.006;2023-05-14T08:30:58;1.77;;;1.77;;
10661;SDS011;5379;51.034;7.006;2023-05-14T08:33:25;1.77;;;1.77;;
10661;SDS011;5379;51.034;7.006;2023-05-14T08:35:51;1.90;;;1.90;;
10661;SDS011;5379;51.034;7.006;2023-05-14T08:38:19;2.10;;;2.00;;
10661;SDS011;5379;51.034;7.006;2023-05-14T08:40:46;2.47;;;2.33;;
10661;SDS011;5379;51.034;7.006;2023-05-14T08:43:15;1.90;;;1.80;;
10661;SDS011;5379;51.034;7.006;2023-05-14T08:45:49;2.03;;;1.80;;
10661;SDS011;5379;51.034;7.006;2023-05-14T08:48:23;2.50;;;2.40;;
10661;SDS011;5379;51.034;7.006;2023-05-14T08:50:54;1.87;;;1.77;;
10661;SDS011;5379;51.034;7.006;2023-05-14T08:53:22;2.50;;;2.30;;
10661;SDS011;5379;51.034;7.006;2023-05-14T08:55:49;2.00;;;1.77;;
10661;SDS011;5379;51.034;7.006;2023-05-14T08:58:31;2.10;;;2.00;;
10661;SDS011;5379;51.034;7.006;2023-05-14T09:01:00;2.43;;;2.33;;
10661;SDS011;5379;51.034;7.006;2023-05-14T09:03:30;2.50;;;2.33;;
10661;SDS011;5379;51.034;7.006;2023-05-14T09:06:01;2.30;;;2.20;;
10661;SDS011;5379;51.034;7.006;2023-05-14T09:08:40;2.37;;;2.27;;
10661;SDS011;5379;51.034;7.006;2023-05-14T09:11:08;2.67;;;2.47;;
10661;SDS011;5379;51.034;7.006;2023-05-14T09:13:36;2.10;;;2.00;;
10661;SDS011;5379;51.034;7.006;2023-05-14T09:16:04;2.10;;;2.00;;
10661;SDS011;5379;51.034;7.006;2023-05-14T09:18:36;1.70;;;1.70;;
10661;SDS011;5379;51.034;7.006;2023-05-14T09:21:08;1.83;;;1.73;;
10661;SDS011;5379;51.034;7.006;2023-05-14T09:24:04;2.03;;;1.93;;
10661;SDS011;5379;51.034;7.006;2023-05-14T09:33:03;1.93;;;1.83;;
10661;SDS011;5379;51.034;7.006;2023-05-14T09:38:27;2.87;;;2.13;;
10661;SDS011;5379;51.034;7.006;2023-05-14T09:40:56;2.17;;;1.97;;
10661;SDS011;5379;51.034;7.006;2023-05-14T09:43:25;2.00;;;1.90;;
10661;SDS011;5379;51.034;7.006;2023-05-14T09:45:56;2.67;;;2.47;;
10661;SDS011;5379;51.034;7.006;2023-05-14T09:55:30;2.07;;;1.87;;
10661;SDS011;5379;51.034;7.006;2023-05-14T09:58:15;1.93;;;1.83;;
10661;SDS011;5379;51.034;7.006;2023-05-14T10:01:37;2.20;;;2.10;;
10661;SDS011;5379;51.034;7.006;2023-05-14T10:04:09;2.57;;;2.37;;
10661;SDS011;5379;51.034;7.006;2023-05-14T10:07:09;1.53;;;1.53;;
10661;SDS011;5379;51.034;7.006;2023-05-14T10:09:51;3.73;;;2.47;;
10661;SDS011;5379;51.034;7.006;2023-05-14T10:12:23;2.00;;;1.90;;
10661;SDS011;5379;51.034;7.006;2023-05-14T10:14:52;2.43;;;2.27;;
10661;SDS011;5379;51.034;7.006;2023-05-14T10:17:23;2.03;;;1.93;;
10661;SDS011;5379;51.034;7.006;2023-05-14T10:19:57;2.03;;;1.93;;
10661;SDS011;5379;51.034;7.006;2023-05-14T10:22:41;1.47;;;1.47;;
10661;SDS011;5379;51.034;7.006;2023-05-14T10:25:09;1.67;;;1.57;;
10661;SDS011;5379;51.034;7.006;2023-05-14T10:27:38;1.67;;;1.67;;
10661;SDS011;5379;51.034;7.006;2023-05-14T10:30:19;1.80;;;1.77;;
10661;SDS011;5379;51.034;7.006;2023-05-14T10:33:15;2.00;;;1.93;;
10661;SDS011;5379;51.034;7.006;2023-05-14T10:35:50;2.27;;;2.17;;
10661;SDS011;5379;51.034;7.006;2023-05-14T10:38:24;2.23;;;2.13;;
10661;SDS011;5379;51.034;7.006;2023-05-14T10:40:56;2.00;;;1.90;;
10661;SDS011;5379;51.034;7.006;2023-05-14T10:43:54;1.60;;;1.50;;
10661;SDS011;5379;51.034;7.006;2023-05-14T10:46:31;2.23;;;2.13;;
10661;SDS011;5379;51.034;7.006;2023-05-14T10:48:58;2.70;;;2.50;;
10661;SDS011;5379;51.034;7.006;2023-05-14T10:51:27;4.43;;;2.23;;
10661;SDS011;5379;51.034;7.006;2023-05-14T10:53:57;1.87;;;1.77;;
10661;SDS011;5379;51.034;7.006;2023-05-14T10:56:26;4.23;;;2.40;;
10661;SDS011;5379;51.034;7.006;2023-05-14T10:58:56;2.60;;;2.50;;
10661;SDS011;5379;51.034;7.006;2023-05-14T11:01:25;1.80;;;1.70;;
10661;SDS011;5379;51.034;7.006;2023-05-14T11:03:56;2.57;;;2.47;;
10661;SDS011;5379;51.034;7.006;2023-05-14T11:06:23;4.10;;;1.50;;
10661;SDS011;5379;51.034;7.006;2023-05-14T11:08:51;1.73;;;1.70;;
10661;SDS011;5379;51.034;7.006;2023-05-14T11:11:19;2.10;;;2.00;;
10661;SDS011;5379;51.034;7.006;2023-05-14T11:13:46;1.77;;;1.73;;
10661;SDS011;5379;51.034;7.006;2023-05-14T11:16:15;3.13;;;1.63;;
10661;SDS011;5379;51.034;7.006;2023-05-14T11:18:43;1.63;;;1.50;;
10661;SDS011;5379;51.034;7.006;2023-05-14T11:21:11;2.20;;;1.63;;
10661;SDS011;5379;51.034;7.006;2023-05-14T11:23:38;1.73;;;1.63;;
10661;SDS011;5379;51.034;7.006;2023-05-14T11:26:05;2.67;;;2.03;;
10661;SDS011;5379;51.034;7.006;2023-05-14T11:28:32;1.50;;;1.40;;
10661;SDS011;5379;51.034;7.006;2023-05-14T11:31:01;2.33;;;2.23;;
10661;SDS011;5379;51.034;7.006;2023-05-14T11:33:31;2.40;;;2.30;;
10661;SDS011;5379;51.034;7.006;2023-05-14T11:35:58;1.93;;;1.87;;
10661;SDS011;5379;51.034;7.006;2023-05-14T11:38:26;2.57;;;2.47;;
10661;SDS011;5379;51.034;7.006;2023-05-14T11:40:54;3.03;;;2.83;;
10661;SDS011;5379;51.034;7.006;2023-05-14T11:43:21;2.60;;;2.50;;
10661;SDS011;5379;51.034;7.006;2023-05-14T11:45:49;2.43;;;2.33;;
10661;SDS011;5379;51.034;7.006;2023-05-14T11:48:17;2.10;;;2.00;;
10661;SDS011;5379;51.034;7.006;2023-05-14T11:50:45;2.10;;;2.00;;
10661;SDS011;5379;51.034;7.006;2023-05-14T11:53:16;2.13;;;2.00;;
10661;SDS011;5379;51.034;7.006;2023-05-14T11:55:44;2.30;;;2.10;;
10661;SDS011;5379;51.034;7.006;2023-05-14T11:58:13;1.60;;;1.60;;
10661;SDS011;5379;51.034;7.006;2023-05-14T12:00:43;1.90;;;1.80;;
10661;SDS011;5379;51.034;7.006;2023-05-14T12:03:10;1.70;;;1.60;;
10661;SDS011;5379;51.034;7.006;2023-05-14T12:05:37;1.70;;;1.60;;
10661;SDS011;5379;51.034;7.006;2023-05-14T12:08:19;2.03;;;1.80;;
10661;SDS011;5379;51.034;7.006;2023-05-14T12:10:46;2.17;;;2.07;;
10661;SDS011;5379;51.034;7.006;2023-05-14T12:13:14;1.87;;;1.77;;
10661;SDS011;5379;51.034;7.006;2023-05-14T12:15:43;2.10;;;1.20;;
10661;SDS011;5379;51.034;7.006;2023-05-14T12:18:11;1.10;;;1.10;;
10661;SDS011;5379;51.034;7.006;2023-05-14T12:20:38;1.00;;;1.00;;
10661;SDS011;5379;51.034;7.006;2023-05-14T12:23:11;1.27;;;1.20;;
10661;SDS011;5379;51.034;7.006;2023-05-14T12:25:39;1.27;;;1.20;;
10661;SDS011;5379;51.034;7.006;2023-05-14T12:28:14;0.70;;;0.70;;
10661;SDS011;5379;51.034;7.006;2023-05-14T12:30:41;1.37;;;1.33;;
10661;SDS011;5379;51.034;7.006;2023-05-14T12:33:08;0.95;;;0.95;;
10661;SDS011;5379;51.034;7.006;2023-05-14T12:35:35;2.83;;;0.77;;
10661;SDS011;5379;51.034;7.006;2023-05-14T12:38:02;3.10;;;1.23;;
10661;SDS011;5379;51.034;7.006;2023-05-14T12:40:29;1.10;;;1.10;;
10661;SDS011;5379;51.034;7.006;2023-05-14T12:42:58;1.90;;;1.80;;
10661;SDS011;5379;51.034;7.006;2023-05-14T12:45:25;2.00;;;1.07;;
10661;SDS011;5379;51.034;7.006;2023-05-14T12:47:52;1.10;;;1.10;;
10661;SDS011;5379;51.034;7.006;2023-05-14T12:50:19;0.73;;;0.73;;
10661;SDS011;5379;51.034;7.006;2023-05-14T12:52:52;1.07;;;0.70;;
10661;SDS011;5379;51.034;7.006;2023-05-14T12:55:19;1.10;;;1.10;;
10661;SDS011;5379;51.034;7.006;2023-05-14T12:57:46;0.70;;;0.70;;
10661;SDS011;5379;51.034;7.006;2023-05-14T13:00:15;0.83;;;0.83;;
10661;SDS011;5379;51.034;7.006;2023-05-14T13:02:50;0.87;;;0.87;;
10661;SDS011;5379;51.034;7.006;2023-05-14T13:05:18;0.80;;;0.80;;
10661;SDS011;5379;51.034;7.006;2023-05-14T13:07:46;0.70;;;0.70;;
10661;SDS011;5379;51.034;7.006;2023-05-14T13:10:13;0.87;;;0.87;;
10661;SDS011;5379;51.034;7.006;2023-05-14T13:12:42;1.17;;;1.17;;
10661;SDS011;5379;51.034;7.006;2023-05-14T13:15:23;0.83;;;0.83;;
10661;SDS011;5379;51.034;7.006;2023-05-14T14:29:05;3.87;;;1.20;;
10661;SDS011;5379;51.034;7.006;2023-05-14T15:11:14;1.10;;;1.10;;
10661;SDS011;5379;51.034;7.006;2023-05-14T15:44:31;0.60;;;0.60;;
10661;SDS011;5379;51.034;7.006;2023-05-14T15:50:32;1.47;;;1.43;;
10661;SDS011;5379;51.034;7.006;2023-05-14T15:57:05;0.70;;;0.70;;
10661;SDS011;5379;51.034;7.006;2023-05-14T15:59:34;1.10;;;1.00;;
10661;SDS011;5379;51.034;7.006;2023-05-14T16:02:01;0.70;;;0.70;;
10661;SDS011;5379;51.034;7.006;2023-05-14T16:04:28;0.80;;;0.80;;
10661;SDS011;5379;51.034;7.006;2023-05-14T16:07:00;0.83;;;0.83;;
10661;SDS011;5379;51.034;7.006;2023-05-14T16:09:28;1.00;;;1.00;;
10661;SDS011;5379;51.034;7.006;2023-05-14T16:11:55;3.87;;;1.33;;
10661;SDS011;5379;51.034;7.006;2023-05-14T16:14:22;1.40;;;1.40;;
10661;SDS011;5379;51.034;7.006;2023-05-14T16:16:50;1.17;;;1.17;;
10661;SDS011;5379;51.034;7.006;2023-05-14T16:19:21;0.73;;;0.73;;
10661;SDS011;5379;51.034;7.006;2023-05-14T16:21:48;0.70;;;0.70;;
10661;SDS011;5379;51.034;7.006;2023-05-14T16:24:15;0.40;;;0.40;;
10661;SDS011;5379;51.034;7.006;2023-05-14T16:26:43;0.40;;;0.40;;
10661;SDS011;5379;51.034;7.006;2023-05-14T16:29:10;0.70;;;0.70;;
10661;SDS011;5379;51.034;7.006;2023-05-14T16:31:37;0.60;;;0.60;;
10661;SDS011;5379;51.034;7.006;2023-05-14T16:34:06;0.73;;;0.73;;
10661;SDS011;5379;51.034;7.006;2023-05-14T16:36:33;0.77;;;0.77;;
10661;SDS011;5379;51.034;7.006;2023-05-14T16:39:00;0.40;;;0.40;;
10661;SDS011;5379;51.034;7.006;2023-05-14T16:41:27;0.30;;;0.30;;
10661;SDS011;5379;51.034;7.006;2023-05-14T16:43:54;0.70;;;0.70;;
10661;SDS011;5379;51.034;7.006;2023-05-14T16:46:21;0.70;;;0.70;;
10661;SDS011;5379;51.034;7.006;2023-05-14T16:48:47;0.43;;;0.43;;
10661;SDS011;5379;51.034;7.006;2023-05-14T16:51:17;0.60;;;0.60;;
10661;SDS011;5379;51.034;7.006;2023-05-14T16:53:43;0.83;;;0.83;;
10661;SDS011;5379;51.034;7.006;2023-05-14T16:56:10;0.50;;;0.50;;
10661;SDS011;5379;51.034;7.006;2023-05-14T16:58:37;0.60;;;0.60;;
10661;SDS011;5379;51.034;7.006;2023-05-14T17:01:04;1.50;;;0.93;;
10661;SDS011;5379;51.034;7.006;2023-05-14T17:03:32;0.40;;;0.40;;
10661;SDS011;5379;51.034;7.006;2023-05-14T17:05:59;0.70;;;0.70;;
10661;SDS011;5379;51.034;7.006;2023-05-14T17:08:27;0.40;;;0.40;;
10661;SDS011;5379;51.034;7.006;2023-05-14T17:10:57;0.50;;;0.50;;
10661;SDS011;5379;51.034;7.006;2023-05-14T17:13:24;0.70;;;0.70;;
10661;SDS011;5379;51.034;7.006;2023-05-14T17:15:51;0.70;;;0.70;;
10661;SDS011;5379;51.034;7.006;2023-05-14T17:18:18;0.60;;;0.60;;
10661;SDS011;5379;51.034;7.006;2023-05-14T17:20:45;0.40;;;0.40;;
10661;SDS011;5379;51.034;7.006;2023-05-14T17:23:12;0.80;;;0.60;;
10661;SDS011;5379;51.034;7.006;2023-05-14T17:25:40;0.40;;;0.40;;
10661;SDS011;5379;51.034;7.006;2023-05-14T17:28:07;0.70;;;0.70;;
10661;SDS011;5379;51.034;7.006;2023-05-14T17:30:34;1.23;;;1.23;;
10661;SDS011;5379;51.034;7.006;2023-05-14T17:33:01;0.50;;;0.50;;
10661;SDS011;5379;51.034;7.006;2023-05-14T17:35:28;1.07;;;0.80;;
10661;SDS011;5379;51.034;7.006;2023-05-14T17:37:59;0.70;;;0.70;;
10661;SDS011;5379;51.034;7.006;2023-05-14T17:40:26;0.50;;;0.50;;
10661;SDS011;5379;51.034;7.006;2023-05-14T17:42:55;0.50;;;0.50;;
10661;SDS011;5379;51.034;7.006;2023-05-14T17:45:22;0.50;;;0.50;;
10661;SDS011;5379;51.034;7.006;2023-05-14T17:47:49;0.80;;;0.80;;
10661;SDS011;5379;51.034;7.006;2023-05-14T17:50:16;2.93;;;1.03;;
10661;SDS011;5379;51.034;7.006;2023-05-14T17:52:43;0.40;;;0.40;;
10661;SDS011;5379;51.034;7.006;2023-05-14T17:55:11;0.70;;;0.70;;
10661;SDS011;5379;51.034;7.006;2023-05-14T17:57:38;0.70;;;0.70;;
10661;SDS011;5379;51.034;7.006;2023-05-14T18:00:08;0.73;;;0.73;;
10661;SDS011;5379;51.034;7.006;2023-05-14T18:02:36;0.43;;;0.43;;
10661;SDS011;5379;51.034;7.006;2023-05-14T18:05:03;1.00;;;0.90;;
10661;SDS011;5379;51.034;7.006;2023-05-14T18:07:30;0.60;;;0.60;;
10661;SDS011;5379;51.034;7.006;2023-05-14T18:09:57;1.50;;;1.40;;
10661;SDS011;5379;51.034;7.006;2023-05-14T18:12:24;0.43;;;0.43;;
10661;SDS011;5379;51.034;7.006;2023-05-14T18:14:51;0.53;;;0.53;;
10661;SDS011;5379;51.034;7.006;2023-05-14T18:17:20;0.67;;;0.67;;
10661;SDS011;5379;51.034;7.006;2023-05-14T18:19:47;0.70;;;0.70;;
10661;SDS011;5379;51.034;7.006;2023-05-14T18:22:14;0.80;;;0.80;;
10661;SDS011;5379;51.034;7.006;2023-05-14T18:24:41;0.80;;;0.80;;
10661;SDS011;5379;51.034;7.006;2023-05-14T18:27:08;0.60;;;0.60;;
10661;SDS011;5379;51.034;7.006;2023-05-14T18:29:35;0.80;;;0.80;;
10661;SDS011;5379;51.034;7.006;2023-05-14T18:32:02;0.63;;;0.50;;
10661;SDS011;5379;51.034;7.006;2023-05-14T18:34:31;0.53;;;0.53;;
10661;SDS011;5379;51.034;7.006;2023-05-14T18:36:58;0.37;;;0.37;;
10661;SDS011;5379;51.034;7.006;2023-05-14T18:39:25;0.50;;;0.50;;
10661;SDS011;5379;51.034;7.006;2023-05-14T18:41:52;0.90;;;0.90;;
10661;SDS011;5379;51.034;7.006;2023-05-14T18:44:20;0.50;;;0.50;;
10661;SDS011;5379;51.034;7.006;2023-05-14T18:46:47;0.50;;;0.50;;
10661;SDS011;5379;51.034;7.006;2023-05-14T18:49:14;0.40;;;0.40;;
10661;SDS011;5379;51.034;7.006;2023-05-14T18:51:43;0.70;;;0.70;;
10661;SDS011;5379;51.034;7.006;2023-05-14T18:54:10;0.40;;;0.40;;
10661;SDS011;5379;51.034;7.006;2023-05-14T18:56:37;0.50;;;0.50;;
10661;SDS011;5379;51.034;7.006;2023-05-14T18:59:08;0.80;;;0.80;;
10661;SDS011;5379;51.034;7.006;2023-05-14T19:01:35;0.43;;;0.43;;
10661;SDS011;5379;51.034;7.006;2023-05-14T19:04:02;0.67;;;0.67;;
10661;SDS011;5379;51.034;7.006;2023-05-14T19:06:30;5.03;;;1.23;;
10661;SDS011;5379;51.034;7.006;2023-05-14T19:08:59;0.70;;;0.70;;
10661;SDS011;5379;51.034;7.006;2023-05-14T19:11:25;0.33;;;0.33;;
10661;SDS011;5379;51.034;7.006;2023-05-14T19:13:52;0.60;;;0.60;;
10661;SDS011;5379;51.034;7.006;2023-05-14T19:16:19;0.93;;;0.93;;
10661;SDS011;5379;51.034;7.006;2023-05-14T19:18:47;0.50;;;0.50;;
10661;SDS011;5379;51.034;7.006;2023-05-14T19:21:14;0.70;;;0.70;;
10661;SDS011;5379;51.034;7.006;2023-05-14T19:23:41;0.60;;;0.60;;
10661;SDS011;5379;51.034;7.006;2023-05-14T19:26:09;0.53;;;0.53;;
10661;SDS011;5379;51.034;7.006;2023-05-14T19:28:36;0.70;;;0.70;;
10661;SDS011;5379;51.034;7.006;2023-05-14T19:31:03;1.07;;;1.03;;
10661;SDS011;5379;51.034;7.006;2023-05-14T19:33:30;0.83;;;0.83;;
10661;SDS011;5379;51.034;7.006;2023-05-14T19:35:57;0.70;;;0.70;;
10661;SDS011;5379;51.034;7.006;2023-05-14T19:38:24;0.40;;;0.40;;
10661;SDS011;5379;51.034;7.006;2023-05-14T19:40:51;0.80;;;0.80;;
10661;SDS011;5379;51.034;7.006;2023-05-14T19:43:22;0.80;;;0.80;;
10661;SDS011;5379;51.034;7.006;2023-05-14T19:45:49;1.23;;;1.13;;
10661;SDS011;5379;51.034;7.006;2023-05-14T19:48:16;0.80;;;0.80;;
10661;SDS011;5379;51.034;7.006;2023-05-14T19:50:44;1.20;;;1.10;;
10661;SDS011;5379;51.034;7.006;2023-05-14T19:53:11;1.00;;;1.00;;
10661;SDS011;5379;51.034;7.006;2023-05-14T19:55:38;1.00;;;1.00;;
10661;SDS011;5379;51.034;7.006;2023-05-14T19:58:05;0.90;;;0.90;;
10661;SDS011;5379;51.034;7.006;2023-05-14T20:00:34;0.97;;;0.97;;
10661;SDS011;5379;51.034;7.006;2023-05-14T20:03:01;0.90;;;0.80;;
10661;SDS011;5379;51.034;7.006;2023-05-14T20:05:29;0.53;;;0.53;;
10661;SDS011;5379;51.034;7.006;2023-05-14T20:07:58;0.73;;;0.73;;
10661;SDS011;5379;51.034;7.006;2023-05-14T20:10:25;1.10;;;1.10;;
10661;SDS011;5379;51.034;7.006;2023-05-14T20:12:52;0.40;;;0.40;;
10661;SDS011;5379;51.034;7.006;2023-05-14T20:15:19;0.50;;;0.50;;
10661;SDS011;5379;51.034;7.006;2023-05-14T20:17:47;0.70;;;0.70;;
10661;SDS011;5379;51.034;7.006;2023-05-14T20:20:14;2.87;;;1.43;;
10661;SDS011;5379;51.034;7.006;2023-05-14T20:22:41;1.23;;;0.70;;
10661;SDS011;5379;51.034;7.006;2023-05-14T20:25:08;0.77;;;0.77;;
10661;SDS011;5379;51.034;7.006;2023-05-14T20:27:35;0.50;;;0.50;;
10661;SDS011;5379;51.034;7.006;2023-05-14T20:30:03;1.10;;;1.10;;
10661;SDS011;5379;51.034;7.006;2023-05-14T20:32:31;0.73;;;0.73;;
10661;SDS011;5379;51.034;7.006;2023-05-14T20:34:59;0.73;;;0.73;;
10661;SDS011;5379;51.034;7.006;2023-05-14T20:37:27;0.60;;;0.60;;
10661;SDS011;5379;51.034;7.006;2023-05-14T20:39:55;0.83;;;0.83;;
10661;SDS011;5379;51.034;7.006;2023-05-14T20:42:22;0.40;;;0.40;;
10661;SDS011;5379;51.034;7.006;2023-05-14T20:44:49;0.80;;;0.80;;
10661;SDS011;5379;51.034;7.006;2023-05-14T20:47:17;0.80;;;0.80;;
10661;SDS011;5379;51.034;7.006;2023-05-14T20:49:47;0.90;;;0.90;;
10661;SDS011;5379;51.034;7.006;2023-05-14T20:52:17;1.90;;;1.53;;
10661;SDS011;5379;51.034;7.006;2023-05-14T20:54:44;0.50;;;0.50;;
10661;SDS011;5379;51.034;7.006;2023-05-14T20:57:11;0.80;;;0.80;;
10661;SDS011;5379;51.034;7.006;2023-05-14T20:59:40;0.60;;;0.60;;
10661;SDS011;5379;51.034;7.006;2023-05-14T21:02:07;1.60;;;0.50;;
10661;SDS011;5379;51.034;7.006;2023-05-14T21:04:34;0.50;;;0.50;;
10661;SDS011;5379;51.034;7.006;2023-05-14T21:07:01;0.60;;;0.60;;
10661;SDS011;5379;51.034;7.006;2023-05-14T21:09:31;0.73;;;0.73;;
10661;SDS011;5379;51.034;7.006;2023-05-14T21:11:58;0.70;;;0.70;;
10661;SDS011;5379;51.034;7.006;2023-05-14T21:14:25;0.77;;;0.77;;
10661;SDS011;5379;51.034;7.006;2023-05-14T21:16:52;0.67;;;0.67;;
10661;SDS011;5379;51.034;7.006;2023-05-14T21:19:20;0.90;;;0.90;;
10661;SDS011;5379;51.034;7.006;2023-05-14T21:21:48;0.87;;;0.87;;
10661;SDS011;5379;51.034;7.006;2023-05-14T21:24:15;0.77;;;0.77;;
10661;SDS011;5379;51.034;7.006;2023-05-14T21:26:45;0.93;;;0.93;;
10661;SDS011;5379;51.034;7.006;2023-05-14T21:29:12;0.80;;;0.80;;
10661;SDS011;5379;51.034;7.006;2023-05-14T21:31:39;0.70;;;0.70;;
10661;SDS011;5379;51.034;7.006;2023-05-14T21:34:06;0.70;;;0.70;;
10661;SDS011;5379;51.034;7.006;2023-05-14T21:36:33;0.73;;;0.73;;
10661;SDS011;5379;51.034;7.006;2023-05-14T21:39:00;0.53;;;0.53;;
10661;SDS011;5379;51.034;7.006;2023-05-14T21:41:27;0.70;;;0.70;;
10661;SDS011;5379;51.034;7.006;2023-05-14T21:43:56;0.70;;;0.70;;
10661;SDS011;5379;51.034;7.006;2023-05-14T21:46:23;0.60;;;0.60;;
10661;SDS011;5379;51.034;7.006;2023-05-14T21:48:52;0.53;;;0.53;;
10661;SDS011;5379;51.034;7.006;2023-05-14T21:51:20;0.57;;;0.57;;
10661;SDS011;5379;51.034;7.006;2023-05-14T21:53:47;1.90;;;1.03;;
10661;SDS011;5379;51.034;7.006;2023-05-14T21:56:14;0.40;;;0.40;;
10661;SDS011;5379;51.034;7.006;2023-05-14T21:58:42;0.73;;;0.73;;
10661;SDS011;5379;51.034;7.006;2023-05-14T22:01:11;3.23;;;1.33;;
10661;SDS011;5379;51.034;7.006;2023-05-14T22:03:38;0.70;;;0.70;;
10661;SDS011;5379;51.034;7.006;2023-05-14T22:06:05;0.80;;;0.80;;
10661;SDS011;5379;51.034;7.006;2023-05-14T22:08:32;0.80;;;0.80;;
10661;SDS011;5379;51.034;7.006;2023-05-14T22:10:59;0.97;;;0.97;;
10661;SDS011;5379;51.034;7.006;2023-05-14T22:13:26;0.77;;;0.77;;
10661;SDS011;5379;51.034;7.006;2023-05-14T22:15:59;0.90;;;0.90;;
10661;SDS011;5379;51.034;7.006;2023-05-14T23:02:28;1.67;;;1.20;;
10661;SDS011;5379;51.034;7.006;2023-05-14T23:05:38;5.60;;;1.73;;
10661;SDS011;5379;51.034;7.006;2023-05-14T23:08:27;6.47;;;1.90;;
10661;SDS011;5379;51.034;7.006;2023-05-14T23:11:20;2.87;;;1.70;;
10661;SDS011;5379;51.034;7.006;2023-05-14T23:13:47;5.33;;;1.63;;
10661;SDS011;5379;51.034;7.006;2023-05-14T23:16:15;1.60;;;1.50;;
10661;SDS011;5379;51.034;7.006;2023-05-14T23:18:43;4.77;;;2.30;;